Time;durP1;ratioP1;P1;durP2;ratioP2;P2;SDS_P1;SDS_P2;PMS_P1;PMS_P2;Temp;Humidity;BMP_temperature;BMP_pressure;BME280_temperature;BME280_humidity;BME280_pressure;Samples;Min_cycle;Max_cycle;Signal;HPM_P1;HPM_P2
2021/11/07 00:02:05;;;;;;;1.13;0.70;;;;;;;-145.06;100.00;60892.56;4866872;28;20040;-90
2021/11/07 00:12:42;;;;;;;1.95;1.08;;;;;;;-145.06;100.00;60892.56;4866269;28;20021;-89
2021/11/07 00:15:22;;;;;;;4.00;0.90;;;;;;;-145.06;100.00;60892.56;4863972;28;20352;-89
2021/11/07 00:18:06;;;;;;;2.40;0.93;;;;;;;-145.06;100.00;60892.56;4865661;28;20032;-89
2021/11/07 00:20:55;;;;;;;2.58;1.17;;;;;;;-145.06;100.00;60892.56;4866176;28;20104;-90
2021/11/07 00:23:57;;;;;;;1.33;0.80;;;;;;;-145.06;100.00;60892.56;4862430;28;20025;-89
2021/11/07 00:27:03;;;;;;;1.30;0.95;;;;;;;-145.06;100.00;60892.56;4866451;28;20120;-89
2021/11/07 00:33:19;;;;;;;3.10;1.00;;;;;;;-145.06;100.00;60892.56;4851122;28;20037;-89
2021/11/07 00:38:56;;;;;;;2.58;0.90;;;;;;;-145.06;100.00;60892.56;4866564;28;20040;-90
2021/11/07 00:41:49;;;;;;;3.20;1.10;;;;;;;-145.06;100.00;60892.56;4867741;28;20025;-90
2021/11/07 00:44:32;;;;;;;2.75;1.20;;;;;;;-145.06;100.00;60892.56;4865883;28;20020;-90
2021/11/07 00:47:22;;;;;;;2.58;1.17;;;;;;;-145.06;100.00;60892.56;4867186;28;20479;-90
2021/11/07 00:50:08;;;;;;;4.75;1.50;;;;;;;-145.06;100.00;60892.56;4873013;28;20084;-90
2021/11/07 00:53:11;;;;;;;2.38;1.40;;;;;;;-145.06;100.00;60892.56;4887197;28;20005;-90
2021/11/07 01:02:01;;;;;;;3.03;1.58;;;;;;;-145.06;100.00;60892.56;4868444;28;20021;-90
2021/11/07 01:04:44;;;;;;;1.92;1.20;;;;;;;-145.06;100.00;60892.56;4866696;28;20032;-90
2021/11/07 01:07:24;;;;;;;4.97;1.48;;;;;;;-145.06;100.00;60892.56;4866199;28;20847;-89
2021/11/07 01:10:03;;;;;;;3.53;1.02;;;;;;;-145.06;100.00;60892.56;4868184;28;20678;-90
2021/11/07 01:12:42;;;;;;;1.67;1.10;;;;;;;-145.06;100.00;60892.56;4864253;28;20025;-90
2021/11/07 01:15:23;;;;;;;2.15;1.30;;;;;;;-145.06;100.00;60892.56;4867659;28;20497;-89
2021/11/07 01:18:03;;;;;;;3.38;1.20;;;;;;;-145.06;100.00;60892.56;4878987;28;20506;-90
2021/11/07 01:20:42;;;;;;;1.80;1.17;;;;;;;-145.06;100.00;60892.56;4862460;28;20599;-90
2021/11/07 01:23:28;;;;;;;2.65;1.27;;;;;;;-145.06;100.00;60892.56;4862158;28;20025;-89
2021/11/07 01:26:19;;;;;;;3.05;1.20;;;;;;;-145.06;100.00;60892.56;4865744;28;20029;-89
2021/11/07 01:29:23;;;;;;;3.70;1.08;;;;;;;15.88;100.00;60892.56;4864881;28;20490;-90
2021/11/07 01:31:58;;;;;;;1.48;1.20;;;;;;;-145.06;100.00;60892.56;4865505;28;20029;-88
2021/11/07 01:34:48;;;;;;;3.13;1.40;;;;;;;-145.06;100.00;60892.56;4864098;28;20120;-89
2021/11/07 01:37:32;;;;;;;;;;;;;;;-145.06;100.00;60892.56;4867199;28;20029;-90
2021/11/07 01:40:15;;;;;;;1.83;0.93;;;;;;;-145.06;100.00;60892.56;4863809;28;19916;-90
2021/11/07 01:42:56;;;;;;;2.00;0.95;;;;;;;177.11;100.00;60892.56;4860133;28;20024;-90
2021/11/07 01:45:45;;;;;;;2.35;1.10;;;;;;;10.63;100.00;60892.56;4861518;28;20068;-89
2021/11/07 01:48:27;;;;;;;3.20;1.08;;;;;;;10.60;100.00;60892.56;4866017;28;20452;-90
2021/11/07 01:51:08;;;;;;;1.83;1.10;;;;;;;-145.06;100.00;60892.56;4863403;28;20033;-89
2021/11/07 01:53:48;;;;;;;1.48;0.88;;;;;;;-145.06;100.00;60892.56;4865497;28;20025;-90
2021/11/07 01:56:27;;;;;;;1.08;0.90;;;;;;;-145.06;100.00;60892.56;4871045;28;20045;-90
2021/11/07 01:59:06;;;;;;;1.63;0.93;;;;;;;-145.06;100.00;60892.56;4868236;28;20040;-90
2021/11/07 02:01:52;;;;;;;1.13;0.90;;;;;;;-145.06;100.00;60892.56;4865813;28;20355;-90
2021/11/07 02:04:31;;;;;;;1.73;0.95;;;;;;;-145.06;100.00;60892.56;4868859;28;20041;-89
2021/11/07 02:07:11;;;;;;;1.77;1.00;;;;;;;-145.06;100.00;60892.56;4870125;28;20079;-88
2021/11/07 02:09:51;;;;;;;1.05;0.88;;;;;;;10.68;100.00;60892.56;4863483;28;20037;-89
2021/11/07 02:12:30;;;;;;;1.77;1.00;;;;;;;21.08;100.00;60892.56;4867846;28;20025;-89
2021/11/07 02:15:12;;;;;;;1.20;0.90;;;;;;;-145.06;100.00;60892.56;4881835;28;20040;-89
2021/11/07 02:17:51;;;;;;;1.77;1.02;;;;;;;-145.06;100.00;60892.56;4868268;28;20459;-89
2021/11/07 02:20:33;;;;;;;2.90;1.10;;;;;;;10.68;100.00;60892.56;4868055;28;20432;-89
2021/11/07 02:23:16;;;;;;;1.33;0.90;;;;;;;-145.06;100.00;60892.56;4868161;28;20032;-90
2021/11/07 02:25:57;;;;;;;2.17;1.00;;;;;;;-145.06;100.00;60892.56;4867752;28;20104;-89
2021/11/07 02:28:43;;;;;;;1.83;0.98;;;;;;;-145.06;100.00;60892.56;4867735;28;20029;-90
2021/11/07 02:31:22;;;;;;;1.10;1.00;;;;;;;-145.06;100.00;60892.56;4870499;28;20041;-89
2021/11/07 02:34:01;;;;;;;1.43;1.00;;;;;;;-145.06;100.00;60892.56;4866371;28;20313;-90
2021/11/07 02:36:42;;;;;;;2.45;0.82;;;;;;;-145.06;100.00;60892.56;4868937;28;20033;-89
2021/11/07 02:39:22;;;;;;;1.55;1.02;;;;;;;-145.06;100.00;60892.56;4870004;28;20053;-88
2021/11/07 02:42:02;;;;;;;0.82;0.80;;;;;;;-145.06;100.00;60892.56;4868511;28;20467;-89
2021/11/07 02:44:46;;;;;;;1.00;0.90;;;;;;;-145.06;100.00;60892.56;4862558;28;20036;-90
2021/11/07 02:47:26;;;;;;;2.30;0.90;;;;;;;-145.06;100.00;60892.56;4871486;28;20041;-89
2021/11/07 02:50:06;;;;;;;;;;;;;;;-145.06;100.00;60892.56;4870315;28;20033;-89
2021/11/07 02:52:46;;;;;;;;;;;;;;;-145.06;100.00;60892.56;4868811;28;19917;-89
2021/11/07 02:55:25;;;;;;;1.08;0.80;;;;;;;-145.06;100.00;60892.56;4867145;28;19920;-89
2021/11/07 02:58:05;;;;;;;3.20;1.00;;;;;;;-145.06;100.00;60892.56;4885586;28;20038;-89
2021/11/07 03:00:46;;;;;;;1.63;0.80;;;;;;;-145.06;100.00;60892.56;4865097;28;20037;-89
2021/11/07 03:03:25;;;;;;;1.60;0.73;;;;;;;-145.06;100.00;60892.56;4866907;28;20029;-89
2021/11/07 03:06:04;;;;;;;2.90;1.00;;;;;;;-145.06;100.00;60892.56;4868617;28;20036;-89
2021/11/07 03:08:48;;;;;;;1.73;1.13;;;;;;;187.52;100.00;60892.56;4867397;28;20033;-89
2021/11/07 03:11:27;;;;;;;1.00;0.90;;;;;;;-145.06;100.00;60892.56;4867513;28;20029;-89
2021/11/07 03:14:08;;;;;;;2.10;1.00;;;;;;;-145.06;100.00;60892.56;4861778;28;20060;-89
2021/11/07 03:16:48;;;;;;;1.48;1.02;;;;;;;-145.06;100.00;60892.56;4867425;28;20112;-89
2021/11/07 03:19:28;;;;;;;1.30;1.17;;;;;;;-145.06;100.00;60892.56;4870483;28;20036;-90
2021/11/07 03:22:10;;;;;;;1.50;0.90;;;;;;;-145.06;100.00;60892.56;4868957;28;20028;-90
2021/11/07 03:24:54;;;;;;;1.48;1.20;;;;;;;-145.06;100.00;60892.56;4866283;28;20479;-89
2021/11/07 03:27:39;;;;;;;1.75;1.30;;;;;;;-145.06;100.00;60892.56;4864834;28;20459;-90
2021/11/07 03:33:31;;;;;;;1.00;0.90;;;;;;;-145.06;100.00;60892.56;4865489;28;20029;-90
2021/11/07 03:36:16;;;;;;;2.35;1.02;;;;;;;-145.06;100.00;60892.56;4865670;28;20041;-89
2021/11/07 03:38:55;;;;;;;1.17;0.90;;;;;;;-145.06;100.00;60892.56;4869292;28;20368;-88
2021/11/07 03:41:34;;;;;;;0.93;0.80;;;;;;;-145.06;100.00;60892.56;4867883;28;20041;-89
2021/11/07 03:44:17;;;;;;;1.10;1.00;;;;;;;-145.06;100.00;60892.56;4866555;28;20271;-89
2021/11/07 03:46:57;;;;;;;1.20;1.10;;;;;;;-145.06;100.00;60892.56;4869215;28;20100;-89
2021/11/07 03:49:37;;;;;;;;;;;;;;;-145.06;100.00;60892.56;4865578;28;20037;-90
2021/11/07 03:52:16;;;;;;;1.10;1.00;;;;;;;-145.06;100.00;60892.56;4863759;28;19917;-90
2021/11/07 03:54:55;;;;;;;2.08;1.30;;;;;;;-145.06;100.00;60892.56;4866133;28;20025;-89
2021/11/07 03:57:34;;;;;;;1.15;1.00;;;;;;;-145.06;100.00;60892.56;4868064;28;20025;-90
2021/11/07 04:00:15;;;;;;;1.60;1.00;;;;;;;-145.06;100.00;60892.56;4875914;28;20037;-90
2021/11/07 04:02:57;;;;;;;1.00;0.90;;;;;;;187.52;100.00;60892.56;4865931;28;20275;-89
2021/11/07 04:05:36;;;;;;;2.53;1.40;;;;;;;-145.06;100.00;60892.56;4866921;28;20037;-89
2021/11/07 04:08:15;;;;;;;1.90;1.20;;;;;;;-145.06;100.00;60892.56;4874827;28;20041;-89
2021/11/07 04:10:54;;;;;;;2.75;1.30;;;;;;;-145.06;100.00;60892.56;4874653;28;20036;-90
2021/11/07 04:13:38;;;;;;;1.45;1.23;;;;;;;-145.06;100.00;60892.56;4864905;28;20475;-89
2021/11/07 04:16:17;;;;;;;1.65;1.20;;;;;;;10.29;100.00;60892.56;4864733;28;20040;-89
2021/11/07 04:18:57;;;;;;;1.20;1.05;;;;;;;-145.06;100.00;60892.56;4863888;28;20033;-88
2021/11/07 04:21:38;;;;;;;2.67;1.55;;;;;;;-145.06;100.00;60892.56;4863386;28;20029;-89
2021/11/07 04:24:17;;;;;;;1.45;1.25;;;;;;;10.32;100.00;60892.56;4865357;28;20545;-90
2021/11/07 04:26:56;;;;;;;1.57;1.20;;;;;;;-145.06;100.00;60892.56;4866751;28;20032;-89
2021/11/07 04:29:35;;;;;;;1.35;1.25;;;;;;;10.38;100.00;60892.56;4866799;28;20037;-89
2021/11/07 04:32:15;;;;;;;1.42;1.20;;;;;;;10.39;100.00;60892.56;4866669;28;20032;-89
2021/11/07 04:34:54;;;;;;;2.03;1.40;;;;;;;10.39;100.00;60892.56;4866252;28;20041;-89
2021/11/07 04:37:37;;;;;;;1.10;1.00;;;;;;;-145.06;100.00;60892.56;4861256;28;20037;-89
2021/11/07 04:40:16;;;;;;;1.83;1.25;;;;;;;-145.06;100.00;60892.56;4880335;28;20475;-89
2021/11/07 04:42:56;;;;;;;2.33;1.57;;;;;;;-145.06;100.00;60892.56;4867005;28;20447;-89
2021/11/07 04:45:35;;;;;;;1.65;1.23;;;;;;;10.44;100.00;60892.56;4865818;28;20621;-89
2021/11/07 04:48:14;;;;;;;1.67;1.23;;;;;;;-145.06;100.00;60892.56;4862965;28;20041;-90
2021/11/07 04:50:52;;;;;;;1.70;1.00;;;;;;;-145.06;100.00;60892.56;4866157;28;20263;-89
2021/11/07 04:53:31;;;;;;;1.33;1.05;;;;;;;10.51;100.00;60892.56;4865569;28;20029;-89
2021/11/07 04:56:10;;;;;;;2.23;1.37;;;;;;;-145.06;100.00;60892.56;4867891;28;20036;-90
2021/11/07 04:58:50;;;;;;;1.77;1.30;;;;;;;-145.06;100.00;60892.56;4867182;28;20107;-89
2021/11/07 05:01:29;;;;;;;1.30;1.20;;;;;;;-145.06;100.00;60892.56;4867338;28;20033;-89
2021/11/07 05:04:08;;;;;;;1.73;1.40;;;;;;;10.54;100.00;60892.56;4865008;28;20033;-89
2021/11/07 05:06:50;;;;;;;1.58;1.30;;;;;;;-145.06;100.00;60892.56;4867437;28;20033;-89
2021/11/07 05:09:29;;;;;;;3.40;1.17;;;;;;;-145.06;100.00;60892.56;4865193;28;20037;-89
2021/11/07 05:12:08;;;;;;;1.52;1.30;;;;;;;-145.06;100.00;60892.56;4865026;28;20368;-89
2021/11/07 05:14:48;;;;;;;1.92;1.30;;;;;;;-145.06;100.00;60892.56;4863440;28;20501;-89
2021/11/07 05:17:26;;;;;;;2.10;1.65;;;;;;;-145.06;100.00;60892.56;4864543;28;20368;-90
2021/11/07 05:20:06;;;;;;;1.30;1.17;;;;;;;-145.06;100.00;60892.56;4862707;28;20032;-89
2021/11/07 05:22:45;;;;;;;1.80;1.58;;;;;;;-145.06;100.00;60892.56;4865433;28;20064;-89
2021/11/07 05:25:24;;;;;;;1.53;1.43;;;;;;;-145.06;100.00;60892.56;4866327;28;20045;-89
2021/11/07 05:28:03;;;;;;;2.08;1.40;;;;;;;10.62;100.00;60892.56;4864760;28;20275;-90
2021/11/07 05:30:43;;;;;;;2.10;1.80;;;;;;;-145.06;100.00;60892.56;4861805;28;20068;-88
2021/11/07 05:33:22;;;;;;;2.17;1.60;;;;;;;-145.06;100.00;60892.56;4865845;28;20356;-90
2021/11/07 05:36:01;;;;;;;1.98;1.48;;;;;;;-145.06;100.00;60892.56;4866560;28;20029;-90
2021/11/07 05:38:42;;;;;;;1.95;1.50;;;;;;;-145.06;100.00;60892.56;4863915;28;20116;-90
2021/11/07 05:41:21;;;;;;;1.98;1.27;;;;;;;-145.06;100.00;60892.56;4864037;28;20045;-89
2021/11/07 05:44:00;;;;;;;1.35;1.25;;;;;;;-145.06;100.00;60892.56;4865276;28;20037;-90
2021/11/07 05:46:40;;;;;;;1.65;1.27;;;;;;;-145.06;100.00;60892.56;4861182;28;20544;-89
2021/11/07 05:49:19;;;;;;;1.50;1.40;;;;;;;-145.06;100.00;60892.56;4862019;28;20486;-90
2021/11/07 05:51:58;;;;;;;1.63;1.07;;;;;;;-145.06;100.00;60892.56;4862573;28;20375;-89
2021/11/07 05:54:37;;;;;;;1.23;1.00;;;;;;;-145.06;100.00;60892.56;4858866;28;20275;-89
2021/11/07 05:57:16;;;;;;;1.27;1.10;;;;;;;-145.06;100.00;60892.56;4863837;28;20037;-90
2021/11/07 05:59:55;;;;;;;1.40;1.30;;;;;;;-145.06;100.00;60892.56;4861715;28;20303;-89
2021/11/07 06:02:34;;;;;;;1.73;1.23;;;;;;;11.33;100.00;60892.56;4864382;28;20037;-90
2021/11/07 06:05:14;;;;;;;1.30;1.00;;;;;;;10.72;100.00;60892.56;4877156;28;20041;-89
2021/11/07 06:07:53;;;;;;;1.40;1.20;;;;;;;-145.06;100.00;60892.56;4863055;28;20768;-90
2021/11/07 06:10:32;;;;;;;1.97;1.30;;;;;;;10.72;100.00;60892.56;4864637;28;20036;-89
2021/11/07 06:13:11;;;;;;;1.30;1.02;;;;;;;-145.06;100.00;60892.56;4864199;28;20287;-89
2021/11/07 06:15:51;;;;;;;1.83;1.30;;;;;;;-145.06;100.00;60892.56;4862439;28;20111;-90
2021/11/07 06:18:30;;;;;;;1.30;1.20;;;;;;;-145.06;100.00;60892.56;4863923;28;20368;-89
2021/11/07 06:21:10;;;;;;;1.77;0.90;;;;;;;-145.06;100.00;60892.56;4865264;28;20029;-89
2021/11/07 06:23:50;;;;;;;1.83;1.20;;;;;;;-145.06;100.00;60892.56;4862567;28;20474;-90
2021/11/07 06:26:29;;;;;;;1.23;1.13;;;;;;;-145.06;100.00;60892.56;4867395;28;20032;-89
2021/11/07 06:29:08;;;;;;;1.30;1.00;;;;;;;-145.06;100.00;60892.56;4865991;28;20541;-89
2021/11/07 06:31:51;;;;;;;2.15;1.58;;;;;;;21.08;100.00;60892.56;4864736;28;20041;-89
2021/11/07 06:34:31;;;;;;;1.30;1.00;;;;;;;13.28;100.00;60892.56;4861453;28;20037;-90
2021/11/07 06:37:10;;;;;;;1.30;1.20;;;;;;;-145.06;100.00;60892.56;4862510;28;20526;-90
2021/11/07 06:39:50;;;;;;;1.30;1.08;;;;;;;-145.06;100.00;60892.56;4878760;28;20025;-89
2021/11/07 06:42:29;;;;;;;1.33;1.02;;;;;;;-145.06;100.00;60892.56;4868848;28;20478;-89
2021/11/07 06:45:11;;;;;;;1.40;1.30;;;;;;;-145.06;100.00;60892.56;4865273;28;20033;-90
2021/11/07 06:47:50;;;;;;;1.38;1.25;;;;;;;-145.06;100.00;60892.56;4868660;28;20032;-89
2021/11/07 06:50:29;;;;;;;1.50;1.20;;;;;;;-145.06;100.00;60892.56;4869255;28;20025;-89
2021/11/07 06:53:08;;;;;;;2.10;1.60;;;;;;;-145.06;100.00;60892.56;4865078;28;20025;-89
2021/11/07 06:55:47;;;;;;;1.50;1.40;;;;;;;-145.06;100.00;60892.56;4864321;28;20041;-89
2021/11/07 06:58:26;;;;;;;1.30;1.20;;;;;;;-145.06;100.00;60892.56;4864999;28;20069;-89
2021/11/07 07:01:05;;;;;;;1.50;1.35;;;;;;;-145.06;100.00;60892.56;4864527;28;20383;-88
2021/11/07 07:03:44;;;;;;;2.60;1.50;;;;;;;-145.06;100.00;60892.56;4865826;28;20658;-89
2021/11/07 07:06:23;;;;;;;1.45;1.20;;;;;;;-145.06;100.00;60892.56;4870525;28;20276;-89
2021/11/07 07:09:13;;;;;;;2.70;1.67;;;;;;;-145.06;100.00;60892.56;4870133;28;20036;-89
2021/11/07 07:12:06;;;;;;;2.92;1.35;;;;;;;-145.06;100.00;60892.56;4868081;28;20033;-89
2021/11/07 07:34:10;;;;;;;1.73;1.30;;;;;;;-145.06;100.00;60892.56;4863046;28;20029;-89
2021/11/07 07:36:50;;;;;;;1.77;1.33;;;;;;;187.52;100.00;60892.56;4867543;28;20383;-89
2021/11/07 07:39:29;;;;;;;1.90;1.42;;;;;;;-145.06;100.00;60892.56;4864987;28;20380;-89
2021/11/07 07:42:08;;;;;;;2.40;1.27;;;;;;;-145.06;100.00;60892.56;4867325;28;20029;-88
2021/11/07 07:44:50;;;;;;;1.85;1.38;;;;;;;-145.06;100.00;60892.56;4866310;28;20040;-89
2021/11/07 07:47:29;;;;;;;1.67;1.40;;;;;;;-145.06;100.00;60892.56;4867082;28;20029;-90
2021/11/07 07:50:10;;;;;;;1.17;0.98;;;;;;;-145.06;100.00;60892.56;4864019;28;20504;-90
2021/11/07 07:52:50;;;;;;;1.27;1.15;;;;;;;-145.06;100.00;60892.56;4864380;28;20064;-88
2021/11/07 07:55:29;;;;;;;1.00;0.90;;;;;;;-145.06;100.00;60892.56;4864771;28;20120;-87
2021/11/07 07:58:08;;;;;;;2.50;1.50;;;;;;;-145.06;100.00;60892.56;4867453;28;20040;-88
2021/11/07 08:00:47;;;;;;;1.53;1.10;;;;;;;-145.06;100.00;60892.56;4865694;28;20287;-88
2021/11/07 08:03:26;;;;;;;1.80;1.47;;;;;;;-145.06;100.00;60892.56;4863718;28;20263;-88
2021/11/07 08:06:05;;;;;;;3.08;1.70;;;;;;;-145.06;100.00;60892.56;4863628;28;20116;-88
2021/11/07 08:08:44;;;;;;;1.73;1.10;;;;;;;-145.06;100.00;60892.56;4864870;28;20033;-88
2021/11/07 08:11:23;;;;;;;2.77;1.70;;;;;;;-145.06;100.00;60892.56;4863224;28;21207;-88
2021/11/07 08:14:02;;;;;;;1.70;1.40;;;;;;;-145.06;100.00;60892.56;4866850;28;20037;-88
2021/11/07 08:16:42;;;;;;;2.97;1.20;;;;;;;-145.06;100.00;60892.56;4865918;28;20387;-88
2021/11/07 08:19:20;;;;;;;3.22;1.42;;;;;;;-145.06;100.00;60892.56;4863261;28;20036;-88
2021/11/07 08:22:00;;;;;;;1.30;1.20;;;;;;;-145.06;100.00;60892.56;4862358;28;20115;-89
2021/11/07 08:24:39;;;;;;;1.47;1.20;;;;;;;-145.06;100.00;60892.56;4864206;28;20462;-88
2021/11/07 08:27:18;;;;;;;2.20;1.40;;;;;;;-145.06;100.00;60892.56;4863374;28;20052;-88
2021/11/07 08:29:57;;;;;;;1.17;1.00;;;;;;;-145.06;100.00;60892.56;4861624;28;20037;-88
2021/11/07 08:32:37;;;;;;;1.58;1.05;;;;;;;-145.06;100.00;60892.56;4861799;28;20025;-88
2021/11/07 08:35:16;;;;;;;2.17;1.38;;;;;;;-145.06;100.00;60892.56;4865697;28;20045;-88
2021/11/07 08:38:01;;;;;;;1.08;0.95;;;;;;;-145.06;100.00;60892.56;4855911;28;20037;-88
2021/11/07 08:40:43;;;;;;;1.17;0.95;;;;;;;-145.06;100.00;60892.56;4863700;28;20486;-88
2021/11/07 09:01:01;;;;;;;1.90;1.20;;;;;;;-145.06;100.00;60892.56;4862683;28;20104;-89
2021/11/07 09:04:05;;;;;;;2.15;1.60;;;;;;;-145.06;100.00;60892.56;4862714;28;20574;-89
2021/11/07 09:09:29;;;;;;;3.45;1.38;;;;;;;-145.06;100.00;60892.56;4865217;28;20112;-89
2021/11/07 09:12:10;;;;;;;4.10;1.55;;;;;;;-145.06;100.00;60892.56;4861959;28;21793;-89
2021/11/07 09:14:49;;;;;;;3.70;1.90;;;;;;;-145.06;100.00;60892.56;4863044;28;20399;-89
2021/11/07 09:17:28;;;;;;;2.80;1.50;;;;;;;-145.06;100.00;60892.56;4864370;28;20120;-88
2021/11/07 09:20:08;;;;;;;2.95;1.42;;;;;;;-145.06;100.00;60892.56;4870118;28;20283;-89
2021/11/07 09:22:57;;;;;;;1.63;1.20;;;;;;;-145.06;100.00;60892.56;4853965;28;20360;-88
2021/11/07 09:28:26;;;;;;;3.47;1.40;;;;;;;11.73;100.00;60892.56;4857268;28;20045;-89
2021/11/07 09:31:13;;;;;;;3.13;1.63;;;;;;;-145.06;100.00;60892.56;4872724;28;20026;-88
2021/11/07 09:36:55;;;;;;;3.45;1.50;;;;;;;-145.06;100.00;60892.56;4861339;28;20041;-88
2021/11/07 09:40:18;;;;;;;2.15;1.13;;;;;;;-145.06;100.00;60892.56;4860598;28;20033;-89
2021/11/07 09:45:42;;;;;;;3.80;1.65;;;;;;;-145.06;100.00;60892.56;4861622;28;20049;-88
2021/11/07 09:48:26;;;;;;;2.45;1.70;;;;;;;15.88;100.00;60892.56;4861659;28;20041;-88
2021/11/07 09:51:15;;;;;;;4.75;1.73;;;;;;;12.06;100.00;60892.56;4861441;28;20033;-88
2021/11/07 09:53:55;;;;;;;3.38;1.60;;;;;;;-145.06;100.00;60892.56;4856805;28;20494;-89
2021/11/07 09:56:34;;;;;;;2.95;1.45;;;;;;;-145.06;100.00;60892.56;4859157;28;20120;-88
2021/11/07 09:59:14;;;;;;;3.10;1.70;;;;;;;-145.06;100.00;60892.56;4863752;28;20028;-88
2021/11/07 10:02:00;;;;;;;3.58;1.45;;;;;;;11.98;100.00;60892.56;4858850;28;20264;-88
2021/11/07 10:04:41;;;;;;;5.03;1.70;;;;;;;-145.06;100.00;60892.56;4860658;28;20028;-88
2021/11/07 10:07:29;;;;;;;5.68;1.65;;;;;;;12.04;100.00;60892.56;4857217;28;20032;-88
2021/11/07 10:10:24;;;;;;;5.18;2.00;;;;;;;12.04;100.00;60892.56;4860153;28;20586;-88
2021/11/07 10:13:10;;;;;;;3.50;1.63;;;;;;;-145.06;100.00;60892.56;4861517;28;20463;-88
2021/11/07 10:16:05;;;;;;;3.22;1.63;;;;;;;-145.06;100.00;60892.56;4866570;28;20033;-89
2021/11/07 10:19:01;;;;;;;5.82;2.20;;;;;;;-145.06;100.00;60892.56;4864364;28;20512;-88
2021/11/07 10:21:46;;;;;;;5.65;1.75;;;;;;;-145.06;100.00;60892.56;4864958;28;20278;-89
2021/11/07 10:24:34;;;;;;;5.60;2.03;;;;;;;12.07;100.00;60892.56;4858297;28;20033;-89
2021/11/07 10:27:13;;;;;;;4.25;1.80;;;;;;;-145.06;100.00;60892.56;4867824;28;20064;-90
2021/11/07 10:30:13;;;;;;;5.63;1.98;;;;;;;-145.06;100.00;60892.56;4865043;28;20036;-88
2021/11/07 10:33:00;;;;;;;4.60;1.87;;;;;;;-145.06;100.00;60892.56;4866240;28;20655;-88
2021/11/07 10:38:51;;;;;;;3.63;1.90;;;;;;;-145.06;100.00;60892.56;4869237;28;20036;-89
2021/11/07 10:53:15;;;;;;;6.22;1.92;;;;;;;-145.06;100.00;60892.56;4864793;28;20017;-90
2021/11/07 10:56:08;;;;;;;4.57;1.85;;;;;;;-145.06;100.00;60892.56;4866410;28;20037;-89
2021/11/07 10:58:47;;;;;;;4.35;2.10;;;;;;;-145.06;100.00;60892.56;4864879;28;20033;-89
2021/11/07 11:01:26;;;;;;;4.95;1.92;;;;;;;-145.06;100.00;60892.56;4863079;28;20026;-90
2021/11/07 11:04:05;;;;;;;2.22;1.55;;;;;;;-145.06;100.00;60892.56;4866878;28;20033;-89
2021/11/07 11:06:54;;;;;;;4.87;1.67;;;;;;;-145.06;100.00;60892.56;4868459;28;20033;-89
2021/11/07 11:09:38;;;;;;;5.13;1.40;;;;;;;-145.06;100.00;60892.56;4866647;28;20036;-90
2021/11/07 11:12:20;;;;;;;5.38;1.60;;;;;;;12.14;100.00;60892.56;4880438;28;20028;-90
2021/11/07 11:15:19;;;;;;;6.43;1.83;;;;;;;-145.06;100.00;60892.56;4860072;28;20033;-90
2021/11/07 11:18:12;;;;;;;;;;;;;;;-145.06;100.00;60892.56;4866723;28;20025;-89
2021/11/07 11:24:17;;;;;;;2.80;1.30;;;;;;;-145.06;100.00;60892.56;4866894;28;20025;-89
2021/11/07 11:30:10;;;;;;;3.53;1.40;;;;;;;-145.06;100.00;60892.56;4862381;28;20113;-89
2021/11/07 11:33:07;;;;;;;6.32;2.03;;;;;;;-145.06;100.00;60892.56;4862866;28;20049;-90
2021/11/07 11:38:39;;;;;;;3.15;1.15;;;;;;;-145.06;100.00;60892.56;4862181;28;20391;-90
2021/11/07 11:41:59;;;;;;;2.65;1.15;;;;;;;-145.06;100.00;60892.56;4877499;28;20033;-89
2021/11/07 11:44:26;;;;;;;2.28;1.20;;;;;;;-145.06;100.00;60892.56;4866700;28;20115;-91
2021/11/07 11:47:46;;;;;;;5.72;1.58;;;;;;;-145.06;100.00;60892.56;4860983;28;20033;-90
2021/11/07 11:50:50;;;;;;;6.85;1.88;;;;;;;-145.06;100.00;60892.56;4857045;28;20376;-90
2021/11/07 11:56:34;;;;;;;5.57;1.45;;;;;;;-145.06;100.00;60892.56;4858311;28;20709;-90
2021/11/07 11:59:30;;;;;;;4.88;1.25;;;;;;;-145.06;100.00;60892.56;4856390;28;20049;-90
2021/11/07 12:02:21;;;;;;;3.13;1.13;;;;;;;13.28;100.00;60892.56;4857759;28;20017;-90
2021/11/07 12:05:08;;;;;;;6.05;1.48;;;;;;;-145.06;100.00;60892.56;4857776;28;20116;-90
2021/11/07 12:08:07;;;;;;;6.63;1.45;;;;;;;-145.06;100.00;60892.56;4855156;28;20155;-90
2021/11/07 12:11:04;;;;;;;7.50;1.35;;;;;;;-145.06;100.00;60892.56;4859221;28;20033;-90
2021/11/07 12:13:49;;;;;;;5.50;1.92;;;;;;;187.52;100.00;60892.56;4858904;28;20028;-90
2021/11/07 12:16:57;;;;;;;4.60;1.60;;;;;;;-145.06;100.00;60892.56;4847547;28;20053;-90
2021/11/07 12:19:43;;;;;;;5.70;1.83;;;;;;;-145.06;100.00;60892.56;4854028;28;20403;-90
2021/11/07 12:22:33;;;;;;;3.33;1.25;;;;;;;-145.06;100.00;60892.56;4850301;28;20034;-90
2021/11/07 12:25:13;;;;;;;;;;;;;;;-145.06;100.00;60892.56;4854695;28;20530;-89
2021/11/07 12:27:55;;;;;;;3.67;1.38;;;;;;;12.23;100.00;60892.56;4852579;28;19939;-90
2021/11/07 12:30:34;;;;;;;4.43;1.38;;;;;;;-145.06;100.00;60892.56;4846740;28;20052;-89
2021/11/07 12:33:22;;;;;;;5.82;1.50;;;;;;;-145.06;100.00;60892.56;4846353;28;20395;-89
2021/11/07 12:42:35;;;;;;;5.00;1.67;;;;;;;187.52;100.00;60892.56;4852230;28;20041;-90
2021/11/07 12:45:31;;;;;;;4.90;1.65;;;;;;;-145.06;100.00;60892.56;4836536;28;20044;-89
2021/11/07 12:48:13;;;;;;;5.40;1.65;;;;;;;-145.06;100.00;60892.56;4847261;28;20132;-89
2021/11/07 12:51:04;;;;;;;7.22;1.80;;;;;;;-145.06;100.00;60892.56;4842596;28;20049;-90
2021/11/07 12:54:02;;;;;;;7.07;1.90;;;;;;;-145.06;100.00;60892.56;4837491;28;20239;-90
2021/11/07 12:57:18;;;;;;;7.35;2.00;;;;;;;-145.06;100.00;60892.56;4844490;28;20687;-90
2021/11/07 12:59:59;;;;;;;6.50;1.63;;;;;;;-145.06;100.00;60892.56;4830804;28;20037;-90
2021/11/07 13:02:38;;;;;;;6.93;1.98;;;;;;;-145.06;100.00;60892.56;4855382;28;20068;-89
2021/11/07 13:05:31;;;;;;;7.28;1.65;;;;;;;15.88;100.00;60892.56;4865719;28;20312;-90
2021/11/07 13:08:23;;;;;;;5.38;1.65;;;;;;;-145.06;100.00;60892.56;4858574;28;20379;-90
2021/11/07 13:11:17;;;;;;;4.78;1.88;;;;;;;-145.06;100.00;60892.56;4859126;28;20041;-90
2021/11/07 13:14:11;;;;;;;5.47;1.80;;;;;;;-145.06;100.00;60892.56;4854612;28;20025;-89
2021/11/07 13:26:01;;;;;;;5.55;2.00;;;;;;;12.27;100.00;60892.56;4856481;28;20037;-89
2021/11/07 13:28:44;;;;;;;8.07;2.30;;;;;;;-145.06;100.00;60892.56;4855280;28;20033;-90
2021/11/07 13:31:26;;;;;;;5.80;1.88;;;;;;;-145.06;100.00;60892.56;4856211;28;20482;-90
2021/11/07 13:34:13;;;;;;;7.55;2.03;;;;;;;-145.06;100.00;60892.56;4851657;28;20021;-90
2021/11/07 13:36:53;;;;;;;5.03;1.75;;;;;;;-145.06;100.00;60892.56;4854754;28;20444;-89
2021/11/07 13:39:36;;;;;;;7.18;2.00;;;;;;;-145.06;100.00;60892.56;4858753;28;20033;-90
2021/11/07 13:42:16;;;;;;;6.20;2.08;;;;;;;-145.06;100.00;60892.56;4850052;28;20387;-89
2021/11/07 13:45:01;;;;;;;6.70;2.03;;;;;;;-145.06;100.00;60892.56;4854013;28;20029;-88
2021/11/07 13:47:43;;;;;;;9.40;1.98;;;;;;;-145.06;100.00;60892.56;4858504;28;20028;-90
2021/11/07 13:50:25;;;;;;;5.45;1.60;;;;;;;-145.06;100.00;60892.56;4859462;28;20036;-89
2021/11/07 13:53:04;;;;;;;4.68;1.65;;;;;;;-145.06;100.00;60892.56;4852439;28;20161;-89
2021/11/07 13:55:44;;;;;;;5.97;1.30;;;;;;;-145.06;100.00;60892.56;4859895;28;20051;-89
2021/11/07 13:58:25;;;;;;;6.47;1.90;;;;;;;12.22;100.00;60892.56;4866958;28;20056;-90
2021/11/07 14:01:14;;;;;;;5.00;1.63;;;;;;;-145.06;100.00;60892.56;4876856;28;20092;-89
2021/11/07 14:03:55;;;;;;;7.43;1.80;;;;;;;-145.06;100.00;60892.56;4871723;28;20613;-90
2021/11/07 14:06:38;;;;;;;3.08;1.48;;;;;;;-145.06;100.00;60892.56;4856696;28;20257;-90
2021/11/07 14:09:19;;;;;;;4.97;1.75;;;;;;;12.15;100.00;60892.56;4853041;28;20144;-89
2021/11/07 14:11:58;;;;;;;4.03;1.30;;;;;;;-145.06;100.00;60892.56;4849464;28;20045;-89
2021/11/07 14:14:37;;;;;;;5.22;1.63;;;;;;;-145.06;100.00;60892.56;4857415;28;20382;-89
2021/11/07 14:17:24;;;;;;;7.20;1.75;;;;;;;-145.06;100.00;60892.56;4855148;28;20424;-89
2021/11/07 14:20:05;;;;;;;11.18;1.30;;;;;;;15.88;100.00;60892.56;4853940;28;20041;-89